Flight Track Log - Related Links

Times and Time Zones

All times are in EDT time to prevent confusion due to time zone crossing. See the MPE478 flight status page for this flight to view local times or setup timezone preferences in your user account.

Time Position Orientation Groundspeed Altitude Reporting Facility
EDT Latitude Longitude Course Direction KTS MPH feet Rate Location/Type
Thu 03:45:00 PM 68.6169 -94.0824 90° East  Level FlightAware Approximate
Thu 03:46:00 PM 68.6168 -93.9175 90° East  Level FlightAware Approximate
Thu 03:47:00 PM 68.6165 -93.7526 92° East  Level FlightAware Approximate
Thu 03:48:00 PM 68.6142 -93.5879 92° East  Level FlightAware Approximate
Thu 03:49:00 PM 68.6118 -93.4232 92° East  Level FlightAware Approximate
Thu 03:50:00 PM 68.6093 -93.2586 92° East  Level FlightAware Approximate
Thu 03:51:00 PM 68.6065 -93.0939 93° East  Level FlightAware Approximate
Thu 03:52:00 PM 68.6037 -92.9294 93° East  Level FlightAware Approximate
Thu 03:53:00 PM 68.6006 -92.7648 93° East  Level FlightAware Approximate
Thu 03:54:00 PM 68.5975 -92.6003 93° East  Level FlightAware Approximate
Thu 03:55:00 PM 68.5943 -92.4359 93° East  Level FlightAware Approximate
Thu 03:56:00 PM 68.5908 -92.2715 93° East  Level FlightAware Approximate
Thu 03:57:00 PM 68.5873 -92.1071 93° East  Level FlightAware Approximate
Thu 03:58:00 PM 68.5835 -91.9428 93° East  Level FlightAware Approximate
Thu 03:59:00 PM 68.5778 -91.7790 96° East  Level FlightAware Approximate
Thu 04:00:00 PM 68.5717 -91.6153 96° East  Level FlightAware Approximate
Thu 04:01:00 PM 68.5667 -91.4515 90° East  Level FlightAware Approximate
Thu 04:02:00 PM 68.5669 -91.2870 90° East  Level FlightAware Approximate
Thu 04:03:00 PM 68.5669 -91.1226 90° East  Level FlightAware Approximate
Thu 04:04:00 PM 68.5668 -90.9581 90° East  Level FlightAware Approximate
Thu 04:05:00 PM 68.5630 -90.7941 95° East  Level FlightAware Approximate
Thu 04:06:00 PM 68.5572 -90.6304 95° East  Level FlightAware Approximate
Thu 04:07:00 PM 68.5512 -90.4668 96° East  Level FlightAware Approximate
Thu 04:08:00 PM 68.5500 -90.3026 90° East  Level FlightAware Approximate
Thu 04:09:00 PM 68.5334 -90.1524 90° East  Level FlightAware Approximate
Thu 04:10:00 PM 68.5333 -89.9882 90° East  Level FlightAware Approximate
Thu 04:11:00 PM 68.5333 -89.8239 90° East  Level FlightAware Approximate
Thu 04:12:00 PM 68.5333 -89.8000 270° West  Level FlightAware Approximate
Thu 04:13:00 PM 68.5344 -89.8081 270° West  Level Estimated
Thu 04:14:00 PM 68.5333 -89.8000 270° West  Level FlightAware Approximate
Thu 04:15:00 PM 68.5344 -89.8081 270° West  Level Estimated
Thu 04:16:00 PM 68.5333 -89.8000 270° West  Level FlightAware Approximate
Thu 04:17:00 PM 68.5344 -89.8081 270° West  Level Estimated
Thu 04:18:00 PM 68.5333 -89.8000 270° West  Level FlightAware Approximate

Login

Don't have an account? Register now (free) for customized features, flight alerts, and more!